sensor_id;sensor_type;location;lat;lon;timestamp;P1;durP1;ratioP1;P2;durP2;ratioP2
71558;SDS011;59382;43.852;25.952;2023-09-19T00:00:42;2.00;;;1.77;;
71558;SDS011;59382;43.852;25.952;2023-09-19T00:03:09;2.20;;;2.00;;
71558;SDS011;59382;43.852;25.952;2023-09-19T00:05:36;1.80;;;1.70;;
71558;SDS011;59382;43.852;25.952;2023-09-19T00:08:09;5.25;;;2.30;;
71558;SDS011;59382;43.852;25.952;2023-09-19T00:10:35;4.20;;;1.98;;
71558;SDS011;59382;43.852;25.952;2023-09-19T00:13:04;3.13;;;2.55;;
71558;SDS011;59382;43.852;25.952;2023-09-19T00:15:40;2.88;;;2.00;;
71558;SDS011;59382;43.852;25.952;2023-09-19T00:18:07;2.13;;;1.92;;
71558;SDS011;59382;43.852;25.952;2023-09-19T00:20:36;2.72;;;2.13;;
71558;SDS011;59382;43.852;25.952;2023-09-19T00:23:03;2.30;;;1.98;;
71558;SDS011;59382;43.852;25.952;2023-09-19T00:25:29;3.25;;;2.28;;
71558;SDS011;59382;43.852;25.952;2023-09-19T00:27:55;2.45;;;1.75;;
71558;SDS011;59382;43.852;25.952;2023-09-19T00:30:20;3.03;;;2.13;;
71558;SDS011;59382;43.852;25.952;2023-09-19T00:32:50;2.45;;;2.25;;
71558;SDS011;59382;43.852;25.952;2023-09-19T00:35:22;2.53;;;2.33;;
71558;SDS011;59382;43.852;25.952;2023-09-19T00:37:51;5.82;;;2.28;;
71558;SDS011;59382;43.852;25.952;2023-09-19T00:40:17;2.95;;;2.40;;
71558;SDS011;59382;43.852;25.952;2023-09-19T00:42:43;2.67;;;2.33;;
71558;SDS011;59382;43.852;25.952;2023-09-19T00:45:13;5.50;;;2.40;;
71558;SDS011;59382;43.852;25.952;2023-09-19T00:47:43;2.65;;;2.40;;
71558;SDS011;59382;43.852;25.952;2023-09-19T00:50:12;2.53;;;2.25;;
71558;SDS011;59382;43.852;25.952;2023-09-19T00:52:40;3.63;;;2.40;;
71558;SDS011;59382;43.852;25.952;2023-09-19T00:55:08;3.80;;;2.30;;
71558;SDS011;59382;43.852;25.952;2023-09-19T00:57:34;2.53;;;2.33;;
71558;SDS011;59382;43.852;25.952;2023-09-19T01:00:03;1.90;;;1.80;;
71558;SDS011;59382;43.852;25.952;2023-09-19T01:02:31;2.88;;;2.38;;
71558;SDS011;59382;43.852;25.952;2023-09-19T01:04:58;7.72;;;2.67;;
71558;SDS011;59382;43.852;25.952;2023-09-19T01:07:24;2.78;;;2.42;;
71558;SDS011;59382;43.852;25.952;2023-09-19T01:09:50;2.22;;;2.05;;
71558;SDS011;59382;43.852;25.952;2023-09-19T01:12:20;2.30;;;2.00;;
71558;SDS011;59382;43.852;25.952;2023-09-19T01:14:57;2.40;;;2.20;;
71558;SDS011;59382;43.852;25.952;2023-09-19T01:17:31;5.30;;;2.60;;
71558;SDS011;59382;43.852;25.952;2023-09-19T01:31:23;2.60;;;2.40;;
71558;SDS011;59382;43.852;25.952;2023-09-19T01:33:53;3.13;;;2.67;;
71558;SDS011;59382;43.852;25.952;2023-09-19T01:36:26;3.55;;;2.00;;
71558;SDS011;59382;43.852;25.952;2023-09-19T01:39:05;2.95;;;2.65;;
71558;SDS011;59382;43.852;25.952;2023-09-19T01:41:38;3.08;;;2.40;;
71558;SDS011;59382;43.852;25.952;2023-09-19T01:44:09;3.22;;;2.42;;
71558;SDS011;59382;43.852;25.952;2023-09-19T01:46:43;4.47;;;2.60;;
71558;SDS011;59382;43.852;25.952;2023-09-19T01:49:32;5.63;;;2.67;;
71558;SDS011;59382;43.852;25.952;2023-09-19T01:52:14;3.25;;;2.45;;
71558;SDS011;59382;43.852;25.952;2023-09-19T01:54:55;2.55;;;2.13;;
71558;SDS011;59382;43.852;25.952;2023-09-19T01:57:30;3.80;;;2.70;;
71558;SDS011;59382;43.852;25.952;2023-09-19T02:00:11;5.20;;;2.30;;
71558;SDS011;59382;43.852;25.952;2023-09-19T02:02:45;7.03;;;2.33;;
71558;SDS011;59382;43.852;25.952;2023-09-19T02:05:13;3.30;;;2.33;;
71558;SDS011;59382;43.852;25.952;2023-09-19T02:07:47;2.97;;;2.67;;
71558;SDS011;59382;43.852;25.952;2023-09-19T02:10:13;4.82;;;2.70;;
71558;SDS011;59382;43.852;25.952;2023-09-19T02:12:39;2.75;;;2.50;;
71558;SDS011;59382;43.852;25.952;2023-09-19T02:15:05;2.53;;;2.33;;
71558;SDS011;59382;43.852;25.952;2023-09-19T02:17:32;3.42;;;2.83;;
71558;SDS011;59382;43.852;25.952;2023-09-19T02:19:58;3.58;;;2.55;;
71558;SDS011;59382;43.852;25.952;2023-09-19T02:22:28;5.47;;;2.50;;
71558;SDS011;59382;43.852;25.952;2023-09-19T02:24:54;4.95;;;2.58;;
71558;SDS011;59382;43.852;25.952;2023-09-19T02:27:23;2.75;;;2.22;;
71558;SDS011;59382;43.852;25.952;2023-09-19T02:29:49;2.92;;;2.38;;
71558;SDS011;59382;43.852;25.952;2023-09-19T02:32:14;3.60;;;3.30;;
71558;SDS011;59382;43.852;25.952;2023-09-19T02:34:40;2.75;;;2.55;;
71558;SDS011;59382;43.852;25.952;2023-09-19T02:37:07;2.92;;;2.30;;
71558;SDS011;59382;43.852;25.952;2023-09-19T02:39:34;2.45;;;2.25;;
71558;SDS011;59382;43.852;25.952;2023-09-19T02:42:00;5.03;;;2.60;;
71558;SDS011;59382;43.852;25.952;2023-09-19T02:44:26;2.72;;;2.33;;
71558;SDS011;59382;43.852;25.952;2023-09-19T02:46:52;3.63;;;2.90;;
71558;SDS011;59382;43.852;25.952;2023-09-19T02:49:18;4.13;;;2.95;;
71558;SDS011;59382;43.852;25.952;2023-09-19T02:51:44;4.45;;;2.83;;
71558;SDS011;59382;43.852;25.952;2023-09-19T02:54:10;4.88;;;2.55;;
71558;SDS011;59382;43.852;25.952;2023-09-19T02:56:36;2.95;;;2.63;;
71558;SDS011;59382;43.852;25.952;2023-09-19T02:59:03;4.43;;;2.58;;
71558;SDS011;59382;43.852;25.952;2023-09-19T03:01:29;3.33;;;2.42;;
71558;SDS011;59382;43.852;25.952;2023-09-19T03:03:54;3.90;;;2.65;;
71558;SDS011;59382;43.852;25.952;2023-09-19T03:06:20;3.38;;;2.58;;
71558;SDS011;59382;43.852;25.952;2023-09-19T03:08:46;3.40;;;2.67;;
71558;SDS011;59382;43.852;25.952;2023-09-19T03:11:14;3.75;;;3.10;;
71558;SDS011;59382;43.852;25.952;2023-09-19T03:13:41;4.05;;;3.17;;
71558;SDS011;59382;43.852;25.952;2023-09-19T03:16:07;3.30;;;3.00;;
71558;SDS011;59382;43.852;25.952;2023-09-19T03:18:34;3.65;;;3.35;;
71558;SDS011;59382;43.852;25.952;2023-09-19T03:21:00;4.40;;;3.30;;
71558;SDS011;59382;43.852;25.952;2023-09-19T03:23:26;3.15;;;2.95;;
71558;SDS011;59382;43.852;25.952;2023-09-19T03:25:52;4.20;;;3.63;;
71558;SDS011;59382;43.852;25.952;2023-09-19T03:28:19;4.85;;;2.88;;
71558;SDS011;59382;43.852;25.952;2023-09-19T03:30:56;4.07;;;3.42;;
71558;SDS011;59382;43.852;25.952;2023-09-19T03:33:32;4.00;;;3.53;;
71558;SDS011;59382;43.852;25.952;2023-09-19T03:35:58;5.25;;;3.28;;
71558;SDS011;59382;43.852;25.952;2023-09-19T03:38:27;3.58;;;2.88;;
71558;SDS011;59382;43.852;25.952;2023-09-19T03:40:55;2.97;;;2.72;;
71558;SDS011;59382;43.852;25.952;2023-09-19T03:43:20;6.45;;;3.10;;
71558;SDS011;59382;43.852;25.952;2023-09-19T03:45:46;4.25;;;3.38;;
71558;SDS011;59382;43.852;25.952;2023-09-19T03:48:12;5.43;;;3.80;;
71558;SDS011;59382;43.852;25.952;2023-09-19T03:50:38;5.43;;;2.88;;
71558;SDS011;59382;43.852;25.952;2023-09-19T03:53:04;2.95;;;2.53;;
71558;SDS011;59382;43.852;25.952;2023-09-19T03:55:32;2.92;;;2.70;;
71558;SDS011;59382;43.852;25.952;2023-09-19T03:58:01;3.83;;;3.20;;
71558;SDS011;59382;43.852;25.952;2023-09-19T04:00:29;3.97;;;3.55;;
71558;SDS011;59382;43.852;25.952;2023-09-19T04:02:54;7.05;;;3.20;;
71558;SDS011;59382;43.852;25.952;2023-09-19T04:05:22;8.73;;;3.30;;
71558;SDS011;59382;43.852;25.952;2023-09-19T04:07:48;6.88;;;3.75;;
71558;SDS011;59382;43.852;25.952;2023-09-19T04:10:15;5.10;;;4.18;;
71558;SDS011;59382;43.852;25.952;2023-09-19T04:12:50;6.32;;;3.60;;
71558;SDS011;59382;43.852;25.952;2023-09-19T04:15:18;5.78;;;3.45;;
71558;SDS011;59382;43.852;25.952;2023-09-19T04:17:50;4.05;;;3.15;;
71558;SDS011;59382;43.852;25.952;2023-09-19T04:20:19;4.07;;;3.33;;
71558;SDS011;59382;43.852;25.952;2023-09-19T04:22:45;6.72;;;4.15;;
71558;SDS011;59382;43.852;25.952;2023-09-19T04:25:14;10.02;;;4.13;;
71558;SDS011;59382;43.852;25.952;2023-09-19T04:27:40;4.50;;;3.75;;
71558;SDS011;59382;43.852;25.952;2023-09-19T04:30:07;6.90;;;3.60;;
71558;SDS011;59382;43.852;25.952;2023-09-19T04:32:40;8.88;;;3.97;;
71558;SDS011;59382;43.852;25.952;2023-09-19T04:35:19;6.55;;;4.55;;
71558;SDS011;59382;43.852;25.952;2023-09-19T04:37:44;8.73;;;4.30;;
71558;SDS011;59382;43.852;25.952;2023-09-19T04:40:10;6.03;;;3.97;;
71558;SDS011;59382;43.852;25.952;2023-09-19T04:42:38;11.07;;;3.67;;
71558;SDS011;59382;43.852;25.952;2023-09-19T04:45:05;5.35;;;3.97;;
71558;SDS011;59382;43.852;25.952;2023-09-19T04:47:31;8.55;;;3.97;;
71558;SDS011;59382;43.852;25.952;2023-09-19T04:49:57;4.10;;;3.63;;
71558;SDS011;59382;43.852;25.952;2023-09-19T04:52:24;9.00;;;4.00;;
71558;SDS011;59382;43.852;25.952;2023-09-19T04:54:49;7.97;;;3.72;;
71558;SDS011;59382;43.852;25.952;2023-09-19T04:57:15;5.47;;;3.65;;
71558;SDS011;59382;43.852;25.952;2023-09-19T04:59:41;5.32;;;3.78;;
71558;SDS011;59382;43.852;25.952;2023-09-19T05:02:06;4.70;;;3.70;;
71558;SDS011;59382;43.852;25.952;2023-09-19T05:04:35;7.00;;;4.22;;
71558;SDS011;59382;43.852;25.952;2023-09-19T05:07:00;5.47;;;4.20;;
71558;SDS011;59382;43.852;25.952;2023-09-19T05:09:29;7.22;;;4.03;;
71558;SDS011;59382;43.852;25.952;2023-09-19T05:11:54;7.55;;;4.10;;
71558;SDS011;59382;43.852;25.952;2023-09-19T05:14:21;9.90;;;4.18;;
71558;SDS011;59382;43.852;25.952;2023-09-19T05:16:48;9.13;;;4.38;;
71558;SDS011;59382;43.852;25.952;2023-09-19T05:19:14;8.38;;;3.72;;
71558;SDS011;59382;43.852;25.952;2023-09-19T05:21:39;7.30;;;4.88;;
71558;SDS011;59382;43.852;25.952;2023-09-19T05:24:05;5.90;;;3.80;;
71558;SDS011;59382;43.852;25.952;2023-09-19T05:26:33;5.75;;;4.00;;
71558;SDS011;59382;43.852;25.952;2023-09-19T05:28:59;6.75;;;4.22;;
71558;SDS011;59382;43.852;25.952;2023-09-19T05:31:26;7.00;;;3.92;;
71558;SDS011;59382;43.852;25.952;2023-09-19T05:33:52;6.97;;;4.60;;
71558;SDS011;59382;43.852;25.952;2023-09-19T05:36:19;8.20;;;4.05;;
71558;SDS011;59382;43.852;25.952;2023-09-19T05:38:45;8.13;;;4.35;;
71558;SDS011;59382;43.852;25.952;2023-09-19T05:41:13;6.82;;;4.47;;
71558;SDS011;59382;43.852;25.952;2023-09-19T05:43:40;7.32;;;4.15;;
71558;SDS011;59382;43.852;25.952;2023-09-19T05:46:06;5.75;;;4.10;;
71558;SDS011;59382;43.852;25.952;2023-09-19T05:48:33;7.30;;;3.63;;
71558;SDS011;59382;43.852;25.952;2023-09-19T05:50:58;9.95;;;4.40;;
71558;SDS011;59382;43.852;25.952;2023-09-19T05:53:26;3.70;;;3.35;;
71558;SDS011;59382;43.852;25.952;2023-09-19T05:55:51;5.43;;;4.07;;
71558;SDS011;59382;43.852;25.952;2023-09-19T05:58:18;7.70;;;3.58;;
71558;SDS011;59382;43.852;25.952;2023-09-19T06:00:45;8.77;;;4.15;;
71558;SDS011;59382;43.852;25.952;2023-09-19T06:03:13;7.72;;;4.32;;
71558;SDS011;59382;43.852;25.952;2023-09-19T06:05:39;8.07;;;3.80;;
71558;SDS011;59382;43.852;25.952;2023-09-19T06:08:08;5.07;;;3.35;;
71558;SDS011;59382;43.852;25.952;2023-09-19T06:10:34;4.80;;;4.10;;
71558;SDS011;59382;43.852;25.952;2023-09-19T06:13:02;7.32;;;3.72;;
71558;SDS011;59382;43.852;25.952;2023-09-19T06:15:31;9.80;;;3.47;;
71558;SDS011;59382;43.852;25.952;2023-09-19T06:17:58;11.57;;;3.95;;
71558;SDS011;59382;43.852;25.952;2023-09-19T06:20:27;5.13;;;3.28;;
71558;SDS011;59382;43.852;25.952;2023-09-19T06:22:53;6.80;;;4.13;;
71558;SDS011;59382;43.852;25.952;2023-09-19T06:25:19;4.15;;;3.35;;
71558;SDS011;59382;43.852;25.952;2023-09-19T06:27:48;10.68;;;4.45;;
71558;SDS011;59382;43.852;25.952;2023-09-19T06:30:17;6.13;;;3.60;;
71558;SDS011;59382;43.852;25.952;2023-09-19T06:32:43;10.10;;;3.25;;
71558;SDS011;59382;43.852;25.952;2023-09-19T06:35:15;6.70;;;3.65;;
71558;SDS011;59382;43.852;25.952;2023-09-19T06:37:42;9.30;;;3.58;;
71558;SDS011;59382;43.852;25.952;2023-09-19T06:40:12;7.90;;;3.28;;
71558;SDS011;59382;43.852;25.952;2023-09-19T06:42:40;6.60;;;3.83;;
71558;SDS011;59382;43.852;25.952;2023-09-19T06:45:10;5.20;;;3.30;;
71558;SDS011;59382;43.852;25.952;2023-09-19T06:47:38;6.22;;;3.53;;
71558;SDS011;59382;43.852;25.952;2023-09-19T06:50:09;2.92;;;2.55;;
71558;SDS011;59382;43.852;25.952;2023-09-19T06:52:44;4.60;;;2.97;;
71558;SDS011;59382;43.852;25.952;2023-09-19T06:55:11;5.40;;;2.70;;
71558;SDS011;59382;43.852;25.952;2023-09-19T06:57:41;3.03;;;2.35;;
71558;SDS011;59382;43.852;25.952;2023-09-19T07:00:09;9.40;;;2.88;;
71558;SDS011;59382;43.852;25.952;2023-09-19T07:02:43;4.13;;;2.75;;
71558;SDS011;59382;43.852;25.952;2023-09-19T07:05:29;5.00;;;3.00;;
71558;SDS011;59382;43.852;25.952;2023-09-19T07:07:56;6.38;;;3.38;;
71558;SDS011;59382;43.852;25.952;2023-09-19T07:10:24;6.70;;;3.67;;
71558;SDS011;59382;43.852;25.952;2023-09-19T07:15:27;9.57;;;3.65;;
71558;SDS011;59382;43.852;25.952;2023-09-19T07:17:53;5.72;;;3.13;;
71558;SDS011;59382;43.852;25.952;2023-09-19T07:20:28;9.77;;;3.33;;
71558;SDS011;59382;43.852;25.952;2023-09-19T07:22:56;2.88;;;2.40;;
71558;SDS011;59382;43.852;25.952;2023-09-19T07:25:25;7.75;;;2.80;;
71558;SDS011;59382;43.852;25.952;2023-09-19T07:27:51;6.07;;;2.80;;
71558;SDS011;59382;43.852;25.952;2023-09-19T07:30:17;7.53;;;2.95;;
71558;SDS011;59382;43.852;25.952;2023-09-19T07:32:43;3.28;;;2.53;;
71558;SDS011;59382;43.852;25.952;2023-09-19T07:35:08;10.93;;;3.35;;
71558;SDS011;59382;43.852;25.952;2023-09-19T07:37:34;4.70;;;2.95;;
71558;SDS011;59382;43.852;25.952;2023-09-19T07:40:04;3.63;;;2.58;;
71558;SDS011;59382;43.852;25.952;2023-09-19T07:42:35;4.18;;;3.42;;
71558;SDS011;59382;43.852;25.952;2023-09-19T07:45:04;5.05;;;2.90;;
71558;SDS011;59382;43.852;25.952;2023-09-19T07:47:30;5.55;;;3.50;;
71558;SDS011;59382;43.852;25.952;2023-09-19T07:49:57;6.30;;;3.75;;
71558;SDS011;59382;43.852;25.952;2023-09-19T07:52:24;5.35;;;2.72;;
71558;SDS011;59382;43.852;25.952;2023-09-19T07:54:49;5.05;;;2.20;;
71558;SDS011;59382;43.852;25.952;2023-09-19T07:57:15;6.25;;;4.68;;
71558;SDS011;59382;43.852;25.952;2023-09-19T07:59:48;4.35;;;3.03;;
71558;SDS011;59382;43.852;25.952;2023-09-19T08:02:13;3.25;;;2.90;;
71558;SDS011;59382;43.852;25.952;2023-09-19T08:04:44;4.45;;;2.85;;
71558;SDS011;59382;43.852;25.952;2023-09-19T08:07:11;4.15;;;2.20;;
71558;SDS011;59382;43.852;25.952;2023-09-19T08:09:38;4.80;;;3.28;;
71558;SDS011;59382;43.852;25.952;2023-09-19T08:12:04;7.18;;;2.78;;
71558;SDS011;59382;43.852;25.952;2023-09-19T08:14:32;3.35;;;2.90;;
71558;SDS011;59382;43.852;25.952;2023-09-19T08:16:58;6.10;;;3.00;;
71558;SDS011;59382;43.852;25.952;2023-09-19T08:19:25;3.13;;;2.58;;
71558;SDS011;59382;43.852;25.952;2023-09-19T08:21:56;1.92;;;1.80;;
71558;SDS011;59382;43.852;25.952;2023-09-19T08:24:27;3.85;;;2.70;;
71558;SDS011;59382;43.852;25.952;2023-09-19T08:26:58;3.10;;;2.20;;
71558;SDS011;59382;43.852;25.952;2023-09-19T08:29:28;4.57;;;2.53;;
71558;SDS011;59382;43.852;25.952;2023-09-19T08:31:55;2.72;;;1.98;;
71558;SDS011;59382;43.852;25.952;2023-09-19T08:34:21;5.43;;;1.95;;
71558;SDS011;59382;43.852;25.952;2023-09-19T08:36:49;3.15;;;2.28;;
71558;SDS011;59382;43.852;25.952;2023-09-19T08:39:21;2.55;;;2.35;;
71558;SDS011;59382;43.852;25.952;2023-09-19T08:41:49;11.38;;;2.63;;
71558;SDS011;59382;43.852;25.952;2023-09-19T08:44:14;4.13;;;2.15;;
71558;SDS011;59382;43.852;25.952;2023-09-19T08:46:41;2.28;;;1.83;;
71558;SDS011;59382;43.852;25.952;2023-09-19T08:49:12;3.08;;;2.10;;
71558;SDS011;59382;43.852;25.952;2023-09-19T08:51:53;4.88;;;1.95;;
71558;SDS011;59382;43.852;25.952;2023-09-19T08:54:29;2.35;;;2.03;;
71558;SDS011;59382;43.852;25.952;2023-09-19T08:57:05;3.25;;;1.75;;
71558;SDS011;59382;43.852;25.952;2023-09-19T08:59:39;3.95;;;2.47;;
71558;SDS011;59382;43.852;25.952;2023-09-19T09:02:13;2.00;;;1.80;;
71558;SDS011;59382;43.852;25.952;2023-09-19T09:04:43;4.38;;;2.00;;
71558;SDS011;59382;43.852;25.952;2023-09-19T09:07:19;1.70;;;1.60;;
71558;SDS011;59382;43.852;25.952;2023-09-19T09:09:55;1.58;;;1.45;;
71558;SDS011;59382;43.852;25.952;2023-09-19T09:12:25;1.27;;;1.17;;
71558;SDS011;59382;43.852;25.952;2023-09-19T09:14:53;1.55;;;1.35;;
71558;SDS011;59382;43.852;25.952;2023-09-19T09:17:21;2.90;;;1.80;;
71558;SDS011;59382;43.852;25.952;2023-09-19T09:19:53;5.65;;;2.05;;
71558;SDS011;59382;43.852;25.952;2023-09-19T09:22:22;1.95;;;1.42;;
71558;SDS011;59382;43.852;25.952;2023-09-19T09:24:55;2.35;;;1.42;;
71558;SDS011;59382;43.852;25.952;2023-09-19T09:27:31;2.83;;;1.63;;
71558;SDS011;59382;43.852;25.952;2023-09-19T09:29:59;1.80;;;1.70;;
71558;SDS011;59382;43.852;25.952;2023-09-19T09:32:28;2.63;;;2.00;;
71558;SDS011;59382;43.852;25.952;2023-09-19T09:35:00;1.90;;;1.70;;
71558;SDS011;59382;43.852;25.952;2023-09-19T09:37:26;1.55;;;1.42;;
71558;SDS011;59382;43.852;25.952;2023-09-19T09:39:57;4.72;;;2.10;;
71558;SDS011;59382;43.852;25.952;2023-09-19T09:42:56;1.52;;;1.42;;
71558;SDS011;59382;43.852;25.952;2023-09-19T09:45:24;1.52;;;1.42;;
71558;SDS011;59382;43.852;25.952;2023-09-19T09:47:59;2.22;;;1.75;;
71558;SDS011;59382;43.852;25.952;2023-09-19T09:50:33;3.35;;;1.90;;
71558;SDS011;59382;43.852;25.952;2023-09-19T09:53:24;9.05;;;2.25;;
71558;SDS011;59382;43.852;25.952;2023-09-19T09:56:06;3.75;;;1.83;;
71558;SDS011;59382;43.852;25.952;2023-09-19T09:58:37;2.03;;;1.70;;
71558;SDS011;59382;43.852;25.952;2023-09-19T10:01:14;1.50;;;1.40;;
71558;SDS011;59382;43.852;25.952;2023-09-19T10:03:41;2.10;;;1.65;;
71558;SDS011;59382;43.852;25.952;2023-09-19T10:06:15;3.28;;;1.50;;
71558;SDS011;59382;43.852;25.952;2023-09-19T10:09:05;1.38;;;1.27;;
71558;SDS011;59382;43.852;25.952;2023-09-19T10:12:12;3.08;;;1.55;;
71558;SDS011;59382;43.852;25.952;2023-09-19T10:14:41;2.78;;;1.40;;
71558;SDS011;59382;43.852;25.952;2023-09-19T10:17:12;1.98;;;1.58;;
71558;SDS011;59382;43.852;25.952;2023-09-19T10:22:16;1.73;;;1.63;;
71558;SDS011;59382;43.852;25.952;2023-09-19T10:24:47;1.50;;;1.40;;
71558;SDS011;59382;43.852;25.952;2023-09-19T10:27:19;4.18;;;1.80;;
71558;SDS011;59382;43.852;25.952;2023-09-19T10:30:00;2.35;;;1.58;;
71558;SDS011;59382;43.852;25.952;2023-09-19T10:32:43;4.55;;;1.77;;
71558;SDS011;59382;43.852;25.952;2023-09-19T10:35:40;2.83;;;2.00;;
71558;SDS011;59382;43.852;25.952;2023-09-19T10:38:25;1.95;;;1.55;;
71558;SDS011;59382;43.852;25.952;2023-09-19T10:40:55;2.42;;;1.20;;
71558;SDS011;59382;43.852;25.952;2023-09-19T10:43:32;1.73;;;1.58;;
71558;SDS011;59382;43.852;25.952;2023-09-19T10:46:16;2.15;;;1.60;;
71558;SDS011;59382;43.852;25.952;2023-09-19T10:48:42;2.38;;;1.58;;
71558;SDS011;59382;43.852;25.952;2023-09-19T10:51:18;3.28;;;1.63;;
71558;SDS011;59382;43.852;25.952;2023-09-19T10:56:32;1.85;;;1.48;;
71558;SDS011;59382;43.852;25.952;2023-09-19T10:59:08;2.15;;;1.23;;
71558;SDS011;59382;43.852;25.952;2023-09-19T11:01:48;1.88;;;1.52;;
71558;SDS011;59382;43.852;25.952;2023-09-19T11:04:33;3.42;;;1.67;;
71558;SDS011;59382;43.852;25.952;2023-09-19T11:07:10;1.90;;;1.73;;
71558;SDS011;59382;43.852;25.952;2023-09-19T11:09:53;1.77;;;1.60;;
71558;SDS011;59382;43.852;25.952;2023-09-19T11:14:56;4.70;;;1.50;;
71558;SDS011;59382;43.852;25.952;2023-09-19T11:17:29;1.83;;;1.52;;
71558;SDS011;59382;43.852;25.952;2023-09-19T11:28:42;2.45;;;1.85;;
71558;SDS011;59382;43.852;25.952;2023-09-19T11:30:45;1.70;;;1.60;;
71558;SDS011;59382;43.852;25.952;2023-09-19T11:36:12;3.65;;;1.55;;
71558;SDS011;59382;43.852;25.952;2023-09-19T11:46:15;4.90;;;2.22;;
71558;SDS011;59382;43.852;25.952;2023-09-19T11:48:47;2.03;;;1.88;;
71558;SDS011;59382;43.852;25.952;2023-09-19T11:51:14;3.95;;;2.30;;
71558;SDS011;59382;43.852;25.952;2023-09-19T11:53:48;2.50;;;1.70;;
71558;SDS011;59382;43.852;25.952;2023-09-19T11:56:18;2.58;;;2.38;;
71558;SDS011;59382;43.852;25.952;2023-09-19T11:58:46;2.17;;;1.98;;
71558;SDS011;59382;43.852;25.952;2023-09-19T12:01:15;2.53;;;2.00;;
71558;SDS011;59382;43.852;25.952;2023-09-19T12:03:52;3.15;;;1.92;;
71558;SDS011;59382;43.852;25.952;2023-09-19T12:06:19;4.70;;;2.10;;
71558;SDS011;59382;43.852;25.952;2023-09-19T12:08:47;2.55;;;1.65;;
71558;SDS011;59382;43.852;25.952;2023-09-19T12:11:14;1.92;;;1.60;;
71558;SDS011;59382;43.852;25.952;2023-09-19T12:13:44;2.28;;;1.92;;
71558;SDS011;59382;43.852;25.952;2023-09-19T12:16:12;3.45;;;1.70;;
71558;SDS011;59382;43.852;25.952;2023-09-19T12:18:42;1.92;;;1.67;;
71558;SDS011;59382;43.852;25.952;2023-09-19T12:23:57;7.47;;;1.70;;
71558;SDS011;59382;43.852;25.952;2023-09-19T12:26:30;1.85;;;1.55;;
71558;SDS011;59382;43.852;25.952;2023-09-19T12:29:03;4.75;;;1.73;;
71558;SDS011;59382;43.852;25.952;2023-09-19T12:31:30;3.25;;;1.58;;
71558;SDS011;59382;43.852;25.952;2023-09-19T12:34:01;2.70;;;1.45;;
71558;SDS011;59382;43.852;25.952;2023-09-19T12:36:27;3.38;;;1.42;;
71558;SDS011;59382;43.852;25.952;2023-09-19T12:38:58;2.17;;;1.98;;
71558;SDS011;59382;43.852;25.952;2023-09-19T12:41:24;1.50;;;1.38;;
71558;SDS011;59382;43.852;25.952;2023-09-19T12:43:52;3.13;;;1.60;;
71558;SDS011;59382;43.852;25.952;2023-09-19T12:46:23;2.40;;;2.05;;
71558;SDS011;59382;43.852;25.952;2023-09-19T12:51:47;5.20;;;1.73;;
71558;SDS011;59382;43.852;25.952;2023-09-19T12:54:14;2.22;;;1.80;;
71558;SDS011;59382;43.852;25.952;2023-09-19T12:56:43;2.90;;;1.77;;
71558;SDS011;59382;43.852;25.952;2023-09-19T12:59:12;1.80;;;1.35;;
71558;SDS011;59382;43.852;25.952;2023-09-19T13:01:40;2.58;;;1.88;;
71558;SDS011;59382;43.852;25.952;2023-09-19T13:06:46;1.52;;;1.40;;
71558;SDS011;59382;43.852;25.952;2023-09-19T13:09:14;1.70;;;1.60;;
71558;SDS011;59382;43.852;25.952;2023-09-19T13:11:41;2.55;;;1.58;;
71558;SDS011;59382;43.852;25.952;2023-09-19T13:19:42;4.03;;;3.63;;
71558;SDS011;59382;43.852;25.952;2023-09-19T13:22:56;4.13;;;2.50;;
71558;SDS011;59382;43.852;25.952;2023-09-19T13:25:14;3.78;;;2.15;;
71558;SDS011;59382;43.852;25.952;2023-09-19T13:27:47;2.20;;;2.00;;
71558;SDS011;59382;43.852;25.952;2023-09-19T13:30:16;2.20;;;2.00;;
71558;SDS011;59382;43.852;25.952;2023-09-19T13:32:43;2.55;;;1.60;;
71558;SDS011;59382;43.852;25.952;2023-09-19T13:35:09;4.10;;;1.63;;
71558;SDS011;59382;43.852;25.952;2023-09-19T13:37:35;2.40;;;1.55;;
71558;SDS011;59382;43.852;25.952;2023-09-19T13:40:10;6.63;;;1.80;;
71558;SDS011;59382;43.852;25.952;2023-09-19T13:42:37;2.13;;;1.60;;
71558;SDS011;59382;43.852;25.952;2023-09-19T13:45:03;2.08;;;1.88;;
71558;SDS011;59382;43.852;25.952;2023-09-19T13:47:30;3.70;;;1.80;;
71558;SDS011;59382;43.852;25.952;2023-09-19T13:49:55;2.20;;;1.52;;
71558;SDS011;59382;43.852;25.952;2023-09-19T13:52:21;5.30;;;1.70;;
71558;SDS011;59382;43.852;25.952;2023-09-19T13:54:49;3.30;;;1.80;;
71558;SDS011;59382;43.852;25.952;2023-09-19T13:57:16;3.97;;;2.00;;
71558;SDS011;59382;43.852;25.952;2023-09-19T13:59:45;1.65;;;1.55;;
71558;SDS011;59382;43.852;25.952;2023-09-19T14:02:10;1.95;;;1.55;;
71558;SDS011;59382;43.852;25.952;2023-09-19T14:04:37;1.73;;;1.63;;
71558;SDS011;59382;43.852;25.952;2023-09-19T14:07:03;2.08;;;1.67;;
71558;SDS011;59382;43.852;25.952;2023-09-19T14:09:29;2.33;;;1.48;;
71558;SDS011;59382;43.852;25.952;2023-09-19T14:11:54;3.03;;;1.92;;
71558;SDS011;59382;43.852;25.952;2023-09-19T14:14:20;3.42;;;1.58;;
71558;SDS011;59382;43.852;25.952;2023-09-19T14:16:49;2.92;;;1.80;;
71558;SDS011;59382;43.852;25.952;2023-09-19T14:19:16;1.67;;;1.58;;
71558;SDS011;59382;43.852;25.952;2023-09-19T14:21:44;4.25;;;1.60;;
71558;SDS011;59382;43.852;25.952;2023-09-19T14:24:10;2.63;;;1.83;;
71558;SDS011;59382;43.852;25.952;2023-09-19T14:26:36;4.35;;;1.70;;
71558;SDS011;59382;43.852;25.952;2023-09-19T14:29:04;2.95;;;1.95;;
71558;SDS011;59382;43.852;25.952;2023-09-19T14:31:36;2.08;;;1.45;;
71558;SDS011;59382;43.852;25.952;2023-09-19T14:34:03;1.58;;;1.40;;
71558;SDS011;59382;43.852;25.952;2023-09-19T14:36:30;2.95;;;1.70;;
71558;SDS011;59382;43.852;25.952;2023-09-19T14:38:55;2.13;;;1.88;;
71558;SDS011;59382;43.852;25.952;2023-09-19T14:41:24;3.28;;;1.90;;
71558;SDS011;59382;43.852;25.952;2023-09-19T14:43:51;3.38;;;1.70;;
71558;SDS011;59382;43.852;25.952;2023-09-19T14:46:17;3.75;;;2.05;;
71558;SDS011;59382;43.852;25.952;2023-09-19T14:48:43;2.05;;;1.38;;
71558;SDS011;59382;43.852;25.952;2023-09-19T14:51:12;6.45;;;2.63;;
71558;SDS011;59382;43.852;25.952;2023-09-19T14:53:39;2.50;;;1.83;;
71558;SDS011;59382;43.852;25.952;2023-09-19T14:56:07;6.68;;;1.95;;
71558;SDS011;59382;43.852;25.952;2023-09-19T14:58:33;11.75;;;2.60;;
71558;SDS011;59382;43.852;25.952;2023-09-19T15:01:05;5.82;;;2.47;;
71558;SDS011;59382;43.852;25.952;2023-09-19T15:03:34;3.92;;;2.60;;
71558;SDS011;59382;43.852;25.952;2023-09-19T15:06:04;3.33;;;2.72;;
71558;SDS011;59382;43.852;25.952;2023-09-19T15:08:35;2.17;;;1.95;;
71558;SDS011;59382;43.852;25.952;2023-09-19T15:11:06;5.40;;;2.90;;
71558;SDS011;59382;43.852;25.952;2023-09-19T15:13:32;2.60;;;1.77;;
71558;SDS011;59382;43.852;25.952;2023-09-19T15:16:01;2.92;;;1.90;;
71558;SDS011;59382;43.852;25.952;2023-09-19T15:18:34;6.70;;;1.88;;
71558;SDS011;59382;43.852;25.952;2023-09-19T15:21:06;1.95;;;1.85;;
71558;SDS011;59382;43.852;25.952;2023-09-19T15:23:33;2.88;;;2.55;;
71558;SDS011;59382;43.852;25.952;2023-09-19T15:26:02;2.50;;;2.28;;
71558;SDS011;59382;43.852;25.952;2023-09-19T15:28:33;4.18;;;1.80;;
71558;SDS011;59382;43.852;25.952;2023-09-19T15:33:30;3.47;;;2.03;;
71558;SDS011;59382;43.852;25.952;2023-09-19T15:38:29;3.83;;;2.47;;
71558;SDS011;59382;43.852;25.952;2023-09-19T15:40:57;9.88;;;2.65;;
71558;SDS011;59382;43.852;25.952;2023-09-19T15:43:23;2.63;;;1.80;;
71558;SDS011;59382;43.852;25.952;2023-09-19T15:45:49;2.67;;;1.80;;